sensor_id;sensor_type;location;lat;lon;timestamp;P1;durP1;ratioP1;P2;durP2;ratioP2
74457;SDS011;62896;51.032;3.712;2024-03-07T00:01:44;29.7;;;19.7;;
74457;SDS011;62896;51.032;3.712;2024-03-07T00:05:05;29.7;;;19.7;;
74457;SDS011;62896;51.032;3.712;2024-03-07T00:08:24;29.7;;;19.7;;
74457;SDS011;62896;51.032;3.712;2024-03-07T00:11:44;29.7;;;19.7;;
74457;SDS011;62896;51.032;3.712;2024-03-07T00:15:05;29.7;;;19.7;;
74457;SDS011;62896;51.032;3.712;2024-03-07T00:18:24;31.3;;;20.3;;
74457;SDS011;62896;51.032;3.712;2024-03-07T00:21:44;31.3;;;20.3;;
74457;SDS011;62896;51.032;3.712;2024-03-07T00:25:05;31.3;;;20.3;;
74457;SDS011;62896;51.032;3.712;2024-03-07T00:28:24;31.3;;;20.3;;
74457;SDS011;62896;51.032;3.712;2024-03-07T00:31:44;31.3;;;20.3;;
74457;SDS011;62896;51.032;3.712;2024-03-07T00:35:05;31.3;;;20.3;;
74457;SDS011;62896;51.032;3.712;2024-03-07T00:38:24;31.3;;;20.3;;
74457;SDS011;62896;51.032;3.712;2024-03-07T00:41:44;31.3;;;20.3;;
74457;SDS011;62896;51.032;3.712;2024-03-07T00:45:05;33.6;;;20.1;;
74457;SDS011;62896;51.032;3.712;2024-03-07T00:48:24;33.6;;;20.1;;
74457;SDS011;62896;51.032;3.712;2024-03-07T00:51:44;33.6;;;20.1;;
74457;SDS011;62896;51.032;3.712;2024-03-07T00:55:05;33.6;;;20.1;;
74457;SDS011;62896;51.032;3.712;2024-03-07T00:58:24;33.6;;;20.1;;
74457;SDS011;62896;51.032;3.712;2024-03-07T01:01:44;33.6;;;20.1;;
74457;SDS011;62896;51.032;3.712;2024-03-07T01:05:05;33.6;;;20.1;;
74457;SDS011;62896;51.032;3.712;2024-03-07T01:08:25;41.2;;;25.2;;
74457;SDS011;62896;51.032;3.712;2024-03-07T01:11:45;41.2;;;25.2;;
74457;SDS011;62896;51.032;3.712;2024-03-07T01:15:05;41.2;;;25.2;;
74457;SDS011;62896;51.032;3.712;2024-03-07T01:18:24;41.2;;;25.2;;
74457;SDS011;62896;51.032;3.712;2024-03-07T01:21:44;41.2;;;25.2;;
74457;SDS011;62896;51.032;3.712;2024-03-07T01:25:05;41.2;;;25.2;;
74457;SDS011;62896;51.032;3.712;2024-03-07T01:28:25;41.2;;;25.2;;
74457;SDS011;62896;51.032;3.712;2024-03-07T01:31:44;41.2;;;25.2;;
74457;SDS011;62896;51.032;3.712;2024-03-07T01:35:05;50.1;;;29.1;;
74457;SDS011;62896;51.032;3.712;2024-03-07T01:38:24;50.1;;;29.1;;
74457;SDS011;62896;51.032;3.712;2024-03-07T01:41:45;50.1;;;29.1;;
74457;SDS011;62896;51.032;3.712;2024-03-07T01:45:05;50.1;;;29.1;;
74457;SDS011;62896;51.032;3.712;2024-03-07T01:48:25;50.1;;;29.1;;
74457;SDS011;62896;51.032;3.712;2024-03-07T01:51:44;50.1;;;29.1;;
74457;SDS011;62896;51.032;3.712;2024-03-07T01:55:05;50.1;;;29.1;;
74457;SDS011;62896;51.032;3.712;2024-03-07T01:58:25;52.2;;;31;;
74457;SDS011;62896;51.032;3.712;2024-03-07T02:01:44;52.2;;;31;;
74457;SDS011;62896;51.032;3.712;2024-03-07T02:05:05;52.2;;;31;;
74457;SDS011;62896;51.032;3.712;2024-03-07T02:08:24;52.2;;;31;;
74457;SDS011;62896;51.032;3.712;2024-03-07T02:11:46;52.2;;;31;;
74457;SDS011;62896;51.032;3.712;2024-03-07T02:15:05;52.2;;;31;;
74457;SDS011;62896;51.032;3.712;2024-03-07T02:18:25;52.2;;;31;;
74457;SDS011;62896;51.032;3.712;2024-03-07T02:21:45;52.2;;;31;;
74457;SDS011;62896;51.032;3.712;2024-03-07T02:25:05;60.2;;;33.8;;
74457;SDS011;62896;51.032;3.712;2024-03-07T02:28:25;60.2;;;33.8;;
74457;SDS011;62896;51.032;3.712;2024-03-07T02:31:45;60.2;;;33.8;;
74457;SDS011;62896;51.032;3.712;2024-03-07T02:35:05;60.2;;;33.8;;
74457;SDS011;62896;51.032;3.712;2024-03-07T02:38:25;60.2;;;33.8;;
74457;SDS011;62896;51.032;3.712;2024-03-07T02:41:45;60.2;;;33.8;;
74457;SDS011;62896;51.032;3.712;2024-03-07T02:45:05;60.2;;;33.8;;
74457;SDS011;62896;51.032;3.712;2024-03-07T02:48:25;61.2;;;35.7;;
74457;SDS011;62896;51.032;3.712;2024-03-07T02:51:45;61.2;;;35.7;;
74457;SDS011;62896;51.032;3.712;2024-03-07T02:55:05;61.2;;;35.7;;
74457;SDS011;62896;51.032;3.712;2024-03-07T02:58:25;61.2;;;35.7;;
74457;SDS011;62896;51.032;3.712;2024-03-07T03:01:45;61.2;;;35.7;;
74457;SDS011;62896;51.032;3.712;2024-03-07T03:05:05;61.2;;;35.7;;
74457;SDS011;62896;51.032;3.712;2024-03-07T03:08:25;61.2;;;35.7;;
74457;SDS011;62896;51.032;3.712;2024-03-07T03:11:45;61.2;;;35.7;;
74457;SDS011;62896;51.032;3.712;2024-03-07T03:15:05;65.1;;;36.6;;
74457;SDS011;62896;51.032;3.712;2024-03-07T03:18:25;65.1;;;36.6;;
74457;SDS011;62896;51.032;3.712;2024-03-07T03:21:45;65.1;;;36.6;;
74457;SDS011;62896;51.032;3.712;2024-03-07T03:25:05;65.1;;;36.6;;
74457;SDS011;62896;51.032;3.712;2024-03-07T03:28:25;65.1;;;36.6;;
74457;SDS011;62896;51.032;3.712;2024-03-07T03:31:45;65.1;;;36.6;;
74457;SDS011;62896;51.032;3.712;2024-03-07T03:35:05;65.1;;;36.6;;
74457;SDS011;62896;51.032;3.712;2024-03-07T03:38:25;68.8;;;38.4;;
74457;SDS011;62896;51.032;3.712;2024-03-07T03:41:45;68.8;;;38.4;;
74457;SDS011;62896;51.032;3.712;2024-03-07T03:45:05;68.8;;;38.4;;
74457;SDS011;62896;51.032;3.712;2024-03-07T03:48:25;68.8;;;38.4;;
74457;SDS011;62896;51.032;3.712;2024-03-07T03:51:45;68.8;;;38.4;;
74457;SDS011;62896;51.032;3.712;2024-03-07T03:55:05;68.8;;;38.4;;
74457;SDS011;62896;51.032;3.712;2024-03-07T03:58:25;68.8;;;38.4;;
74457;SDS011;62896;51.032;3.712;2024-03-07T04:01:45;68.8;;;38.4;;
74457;SDS011;62896;51.032;3.712;2024-03-07T04:05:05;91.7;;;51.9;;
74457;SDS011;62896;51.032;3.712;2024-03-07T04:08:25;91.7;;;51.9;;
74457;SDS011;62896;51.032;3.712;2024-03-07T04:11:45;91.7;;;51.9;;
74457;SDS011;62896;51.032;3.712;2024-03-07T04:15:05;91.7;;;51.9;;
74457;SDS011;62896;51.032;3.712;2024-03-07T04:18:25;91.7;;;51.9;;
74457;SDS011;62896;51.032;3.712;2024-03-07T04:21:45;91.7;;;51.9;;
74457;SDS011;62896;51.032;3.712;2024-03-07T04:25:05;91.7;;;51.9;;
74457;SDS011;62896;51.032;3.712;2024-03-07T04:28:25;81.7;;;41.9;;
74457;SDS011;62896;51.032;3.712;2024-03-07T04:31:45;81.7;;;41.9;;
74457;SDS011;62896;51.032;3.712;2024-03-07T04:35:05;81.7;;;41.9;;
74457;SDS011;62896;51.032;3.712;2024-03-07T04:38:25;81.7;;;41.9;;
74457;SDS011;62896;51.032;3.712;2024-03-07T04:41:45;81.7;;;41.9;;
74457;SDS011;62896;51.032;3.712;2024-03-07T04:45:05;81.7;;;41.9;;
74457;SDS011;62896;51.032;3.712;2024-03-07T04:48:25;81.7;;;41.9;;
74457;SDS011;62896;51.032;3.712;2024-03-07T04:51:45;81.7;;;41.9;;
74457;SDS011;62896;51.032;3.712;2024-03-07T04:55:05;83.9;;;42.4;;
74457;SDS011;62896;51.032;3.712;2024-03-07T04:58:25;83.9;;;42.4;;
74457;SDS011;62896;51.032;3.712;2024-03-07T05:01:45;83.9;;;42.4;;
74457;SDS011;62896;51.032;3.712;2024-03-07T05:05:05;83.9;;;42.4;;
74457;SDS011;62896;51.032;3.712;2024-03-07T05:08:25;83.9;;;42.4;;
74457;SDS011;62896;51.032;3.712;2024-03-07T05:11:45;83.9;;;42.4;;
74457;SDS011;62896;51.032;3.712;2024-03-07T05:15:05;83.9;;;42.4;;
74457;SDS011;62896;51.032;3.712;2024-03-07T05:18:25;80.4;;;40.1;;
74457;SDS011;62896;51.032;3.712;2024-03-07T05:21:45;80.4;;;40.1;;
74457;SDS011;62896;51.032;3.712;2024-03-07T05:25:05;80.4;;;40.1;;
74457;SDS011;62896;51.032;3.712;2024-03-07T05:28:25;80.4;;;40.1;;
74457;SDS011;62896;51.032;3.712;2024-03-07T05:31:45;80.4;;;40.1;;
74457;SDS011;62896;51.032;3.712;2024-03-07T05:35:05;80.4;;;40.1;;
74457;SDS011;62896;51.032;3.712;2024-03-07T05:38:25;80.4;;;40.1;;
74457;SDS011;62896;51.032;3.712;2024-03-07T05:41:45;80.4;;;40.1;;
74457;SDS011;62896;51.032;3.712;2024-03-07T05:45:05;94.1;;;43.5;;
74457;SDS011;62896;51.032;3.712;2024-03-07T05:48:25;94.1;;;43.5;;
74457;SDS011;62896;51.032;3.712;2024-03-07T05:51:45;94.1;;;43.5;;
74457;SDS011;62896;51.032;3.712;2024-03-07T05:55:05;94.1;;;43.5;;
74457;SDS011;62896;51.032;3.712;2024-03-07T05:58:25;94.1;;;43.5;;
74457;SDS011;62896;51.032;3.712;2024-03-07T06:01:45;94.1;;;43.5;;
74457;SDS011;62896;51.032;3.712;2024-03-07T06:05:05;94.1;;;43.5;;
74457;SDS011;62896;51.032;3.712;2024-03-07T06:08:25;92;;;43.4;;
74457;SDS011;62896;51.032;3.712;2024-03-07T06:11:45;92;;;43.4;;
74457;SDS011;62896;51.032;3.712;2024-03-07T06:15:05;92;;;43.4;;
74457;SDS011;62896;51.032;3.712;2024-03-07T06:18:25;92;;;43.4;;
74457;SDS011;62896;51.032;3.712;2024-03-07T06:21:45;92;;;43.4;;
74457;SDS011;62896;51.032;3.712;2024-03-07T06:25:05;92;;;43.4;;
74457;SDS011;62896;51.032;3.712;2024-03-07T06:28:25;92;;;43.4;;
74457;SDS011;62896;51.032;3.712;2024-03-07T06:31:45;92;;;43.4;;
74457;SDS011;62896;51.032;3.712;2024-03-07T06:35:05;88.1;;;41.5;;
74457;SDS011;62896;51.032;3.712;2024-03-07T06:38:25;88.1;;;41.5;;
74457;SDS011;62896;51.032;3.712;2024-03-07T06:41:45;88.1;;;41.5;;
74457;SDS011;62896;51.032;3.712;2024-03-07T06:45:05;88.1;;;41.5;;
74457;SDS011;62896;51.032;3.712;2024-03-07T06:48:25;88.1;;;41.5;;
74457;SDS011;62896;51.032;3.712;2024-03-07T06:51:45;88.1;;;41.5;;
74457;SDS011;62896;51.032;3.712;2024-03-07T06:55:05;88.1;;;41.5;;
74457;SDS011;62896;51.032;3.712;2024-03-07T06:58:25;90;;;41.1;;
74457;SDS011;62896;51.032;3.712;2024-03-07T07:01:45;90;;;41.1;;
74457;SDS011;62896;51.032;3.712;2024-03-07T07:05:05;90;;;41.1;;
74457;SDS011;62896;51.032;3.712;2024-03-07T07:08:25;90;;;41.1;;
74457;SDS011;62896;51.032;3.712;2024-03-07T07:11:45;90;;;41.1;;
74457;SDS011;62896;51.032;3.712;2024-03-07T07:15:05;90;;;41.1;;
74457;SDS011;62896;51.032;3.712;2024-03-07T07:18:25;90;;;41.1;;
74457;SDS011;62896;51.032;3.712;2024-03-07T07:21:45;90;;;41.1;;
74457;SDS011;62896;51.032;3.712;2024-03-07T07:25:05;100.6;;;43;;
74457;SDS011;62896;51.032;3.712;2024-03-07T07:28:25;100.6;;;43;;
74457;SDS011;62896;51.032;3.712;2024-03-07T07:31:45;100.6;;;43;;
74457;SDS011;62896;51.032;3.712;2024-03-07T07:35:05;100.6;;;43;;
74457;SDS011;62896;51.032;3.712;2024-03-07T07:38:25;100.6;;;43;;
74457;SDS011;62896;51.032;3.712;2024-03-07T07:41:45;100.6;;;43;;
74457;SDS011;62896;51.032;3.712;2024-03-07T07:45:06;100.6;;;43;;
74457;SDS011;62896;51.032;3.712;2024-03-07T07:48:25;102.1;;;43.1;;
74457;SDS011;62896;51.032;3.712;2024-03-07T07:51:45;102.1;;;43.1;;
74457;SDS011;62896;51.032;3.712;2024-03-07T07:55:05;102.1;;;43.1;;
74457;SDS011;62896;51.032;3.712;2024-03-07T07:58:25;102.1;;;43.1;;
74457;SDS011;62896;51.032;3.712;2024-03-07T08:01:45;102.1;;;43.1;;
74457;SDS011;62896;51.032;3.712;2024-03-07T08:05:05;102.1;;;43.1;;
74457;SDS011;62896;51.032;3.712;2024-03-07T08:08:25;102.1;;;43.1;;
74457;SDS011;62896;51.032;3.712;2024-03-07T08:11:45;102.1;;;43.1;;
74457;SDS011;62896;51.032;3.712;2024-03-07T08:15:05;94.2;;;41.5;;
74457;SDS011;62896;51.032;3.712;2024-03-07T08:18:25;94.2;;;41.5;;
74457;SDS011;62896;51.032;3.712;2024-03-07T08:21:45;94.2;;;41.5;;
74457;SDS011;62896;51.032;3.712;2024-03-07T08:25:05;94.2;;;41.5;;
74457;SDS011;62896;51.032;3.712;2024-03-07T08:28:25;94.2;;;41.5;;
74457;SDS011;62896;51.032;3.712;2024-03-07T08:31:45;94.2;;;41.5;;
74457;SDS011;62896;51.032;3.712;2024-03-07T08:35:05;94.2;;;41.5;;
74457;SDS011;62896;51.032;3.712;2024-03-07T08:38:25;92.4;;;41.7;;
74457;SDS011;62896;51.032;3.712;2024-03-07T08:41:45;92.4;;;41.7;;
74457;SDS011;62896;51.032;3.712;2024-03-07T08:45:05;92.4;;;41.7;;
74457;SDS011;62896;51.032;3.712;2024-03-07T08:48:25;92.4;;;41.7;;
74457;SDS011;62896;51.032;3.712;2024-03-07T08:51:45;92.4;;;41.7;;
74457;SDS011;62896;51.032;3.712;2024-03-07T08:55:05;92.4;;;41.7;;
74457;SDS011;62896;51.032;3.712;2024-03-07T08:58:25;92.4;;;41.7;;
74457;SDS011;62896;51.032;3.712;2024-03-07T09:01:45;92.4;;;41.7;;
74457;SDS011;62896;51.032;3.712;2024-03-07T09:05:05;106.7;;;42.3;;
74457;SDS011;62896;51.032;3.712;2024-03-07T09:08:25;106.7;;;42.3;;
74457;SDS011;62896;51.032;3.712;2024-03-07T09:11:45;106.7;;;42.3;;
74457;SDS011;62896;51.032;3.712;2024-03-07T09:15:05;106.7;;;42.3;;
74457;SDS011;62896;51.032;3.712;2024-03-07T09:18:25;106.7;;;42.3;;
74457;SDS011;62896;51.032;3.712;2024-03-07T09:21:45;106.7;;;42.3;;
74457;SDS011;62896;51.032;3.712;2024-03-07T09:25:05;106.7;;;42.3;;
74457;SDS011;62896;51.032;3.712;2024-03-07T09:28:25;83;;;37.7;;
74457;SDS011;62896;51.032;3.712;2024-03-07T09:31:45;83;;;37.7;;
74457;SDS011;62896;51.032;3.712;2024-03-07T09:35:05;83;;;37.7;;
74457;SDS011;62896;51.032;3.712;2024-03-07T09:38:25;83;;;37.7;;
74457;SDS011;62896;51.032;3.712;2024-03-07T09:41:45;83;;;37.7;;
74457;SDS011;62896;51.032;3.712;2024-03-07T09:45:05;83;;;37.7;;
74457;SDS011;62896;51.032;3.712;2024-03-07T09:48:25;83;;;37.7;;
74457;SDS011;62896;51.032;3.712;2024-03-07T09:51:45;83;;;37.7;;
74457;SDS011;62896;51.032;3.712;2024-03-07T09:55:05;88.9;;;39.7;;
74457;SDS011;62896;51.032;3.712;2024-03-07T09:58:25;88.9;;;39.7;;
74457;SDS011;62896;51.032;3.712;2024-03-07T10:01:45;88.9;;;39.7;;
74457;SDS011;62896;51.032;3.712;2024-03-07T10:05:05;88.9;;;39.7;;
74457;SDS011;62896;51.032;3.712;2024-03-07T10:08:25;88.9;;;39.7;;
74457;SDS011;62896;51.032;3.712;2024-03-07T10:11:45;88.9;;;39.7;;
74457;SDS011;62896;51.032;3.712;2024-03-07T10:15:05;88.9;;;39.7;;
74457;SDS011;62896;51.032;3.712;2024-03-07T10:18:25;95.6;;;39.4;;
74457;SDS011;62896;51.032;3.712;2024-03-07T10:21:45;95.6;;;39.4;;
74457;SDS011;62896;51.032;3.712;2024-03-07T10:25:05;95.6;;;39.4;;
74457;SDS011;62896;51.032;3.712;2024-03-07T10:28:25;95.6;;;39.4;;
74457;SDS011;62896;51.032;3.712;2024-03-07T10:31:46;95.6;;;39.4;;
74457;SDS011;62896;51.032;3.712;2024-03-07T10:35:06;95.6;;;39.4;;
74457;SDS011;62896;51.032;3.712;2024-03-07T10:38:25;95.6;;;39.4;;
74457;SDS011;62896;51.032;3.712;2024-03-07T10:41:46;95.6;;;39.4;;
74457;SDS011;62896;51.032;3.712;2024-03-07T10:45:05;64.8;;;33.1;;
74457;SDS011;62896;51.032;3.712;2024-03-07T10:48:27;64.8;;;33.1;;
74457;SDS011;62896;51.032;3.712;2024-03-07T10:51:46;64.8;;;33.1;;
74457;SDS011;62896;51.032;3.712;2024-03-07T10:55:08;64.8;;;33.1;;
74457;SDS011;62896;51.032;3.712;2024-03-07T10:58:27;64.8;;;33.1;;
74457;SDS011;62896;51.032;3.712;2024-03-07T11:01:47;64.8;;;33.1;;
74457;SDS011;62896;51.032;3.712;2024-03-07T11:05:05;64.8;;;33.1;;
74457;SDS011;62896;51.032;3.712;2024-03-07T11:08:25;55.2;;;31.5;;
74457;SDS011;62896;51.032;3.712;2024-03-07T11:11:45;55.2;;;31.5;;
74457;SDS011;62896;51.032;3.712;2024-03-07T11:15:05;55.2;;;31.5;;
74457;SDS011;62896;51.032;3.712;2024-03-07T11:18:25;55.2;;;31.5;;
74457;SDS011;62896;51.032;3.712;2024-03-07T11:21:45;55.2;;;31.5;;
74457;SDS011;62896;51.032;3.712;2024-03-07T11:25:05;55.2;;;31.5;;
74457;SDS011;62896;51.032;3.712;2024-03-07T11:28:28;55.2;;;31.5;;
74457;SDS011;62896;51.032;3.712;2024-03-07T11:31:45;55.2;;;31.5;;
74457;SDS011;62896;51.032;3.712;2024-03-07T11:35:05;53.6;;;30;;
74457;SDS011;62896;51.032;3.712;2024-03-07T11:38:30;53.6;;;30;;
74457;SDS011;62896;51.032;3.712;2024-03-07T11:41:45;53.6;;;30;;
74457;SDS011;62896;51.032;3.712;2024-03-07T11:45:06;53.6;;;30;;
74457;SDS011;62896;51.032;3.712;2024-03-07T11:48:25;53.6;;;30;;
74457;SDS011;62896;51.032;3.712;2024-03-07T11:51:45;53.6;;;30;;
74457;SDS011;62896;51.032;3.712;2024-03-07T11:55:05;53.6;;;30;;
74457;SDS011;62896;51.032;3.712;2024-03-07T11:58:25;46.1;;;27.2;;
74457;SDS011;62896;51.032;3.712;2024-03-07T12:01:45;46.1;;;27.2;;
74457;SDS011;62896;51.032;3.712;2024-03-07T12:05:05;46.1;;;27.2;;
74457;SDS011;62896;51.032;3.712;2024-03-07T12:08:25;46.1;;;27.2;;
74457;SDS011;62896;51.032;3.712;2024-03-07T12:11:45;46.1;;;27.2;;
74457;SDS011;62896;51.032;3.712;2024-03-07T12:15:05;46.1;;;27.2;;
74457;SDS011;62896;51.032;3.712;2024-03-07T12:18:25;46.1;;;27.2;;
74457;SDS011;62896;51.032;3.712;2024-03-07T12:21:46;46.1;;;27.2;;
74457;SDS011;62896;51.032;3.712;2024-03-07T12:25:05;37.6;;;24.7;;
74457;SDS011;62896;51.032;3.712;2024-03-07T12:28:25;37.6;;;24.7;;
74457;SDS011;62896;51.032;3.712;2024-03-07T12:31:45;37.6;;;24.7;;
74457;SDS011;62896;51.032;3.712;2024-03-07T12:35:05;37.6;;;24.7;;
74457;SDS011;62896;51.032;3.712;2024-03-07T12:38:25;37.6;;;24.7;;
74457;SDS011;62896;51.032;3.712;2024-03-07T12:41:45;37.6;;;24.7;;
74457;SDS011;62896;51.032;3.712;2024-03-07T12:45:05;37.6;;;24.7;;
74457;SDS011;62896;51.032;3.712;2024-03-07T12:48:25;34.1;;;21.8;;
74457;SDS011;62896;51.032;3.712;2024-03-07T12:51:45;34.1;;;21.8;;
74457;SDS011;62896;51.032;3.712;2024-03-07T12:55:06;34.1;;;21.8;;
74457;SDS011;62896;51.032;3.712;2024-03-07T12:58:25;34.1;;;21.8;;
74457;SDS011;62896;51.032;3.712;2024-03-07T13:01:45;34.1;;;21.8;;
74457;SDS011;62896;51.032;3.712;2024-03-07T13:05:05;34.1;;;21.8;;
74457;SDS011;62896;51.032;3.712;2024-03-07T13:08:25;34.1;;;21.8;;
74457;SDS011;62896;51.032;3.712;2024-03-07T13:11:45;34.1;;;21.8;;
74457;SDS011;62896;51.032;3.712;2024-03-07T13:15:05;31.2;;;22.8;;
74457;SDS011;62896;51.032;3.712;2024-03-07T13:18:25;31.2;;;22.8;;
74457;SDS011;62896;51.032;3.712;2024-03-07T13:21:45;31.2;;;22.8;;
74457;SDS011;62896;51.032;3.712;2024-03-07T13:25:05;31.2;;;22.8;;
74457;SDS011;62896;51.032;3.712;2024-03-07T13:28:25;31.2;;;22.8;;
74457;SDS011;62896;51.032;3.712;2024-03-07T13:31:45;31.2;;;22.8;;
74457;SDS011;62896;51.032;3.712;2024-03-07T13:35:05;31.2;;;22.8;;
74457;SDS011;62896;51.032;3.712;2024-03-07T13:38:25;30.4;;;22.5;;
74457;SDS011;62896;51.032;3.712;2024-03-07T13:41:45;30.4;;;22.5;;
74457;SDS011;62896;51.032;3.712;2024-03-07T13:45:05;30.4;;;22.5;;
74457;SDS011;62896;51.032;3.712;2024-03-07T13:48:25;30.4;;;22.5;;
74457;SDS011;62896;51.032;3.712;2024-03-07T13:51:45;30.4;;;22.5;;
74457;SDS011;62896;51.032;3.712;2024-03-07T13:55:05;30.4;;;22.5;;
74457;SDS011;62896;51.032;3.712;2024-03-07T13:58:32;30.4;;;22.5;;
74457;SDS011;62896;51.032;3.712;2024-03-07T14:01:49;30.4;;;22.5;;
74457;SDS011;62896;51.032;3.712;2024-03-07T14:05:12;29.5;;;23.4;;
74457;SDS011;62896;51.032;3.712;2024-03-07T14:08:34;29.5;;;23.4;;
74457;SDS011;62896;51.032;3.712;2024-03-07T14:12:21;29.5;;;23.4;;
74457;SDS011;62896;51.032;3.712;2024-03-07T14:15:18;29.5;;;23.4;;
74457;SDS011;62896;51.032;3.712;2024-03-07T14:19:37;29.5;;;23.4;;
74457;SDS011;62896;51.032;3.712;2024-03-07T14:21:48;29.5;;;23.4;;
74457;SDS011;62896;51.032;3.712;2024-03-07T14:25:09;29.5;;;23.4;;
74457;SDS011;62896;51.032;3.712;2024-03-07T14:28:33;31.3;;;24.2;;
74457;SDS011;62896;51.032;3.712;2024-03-07T14:31:45;31.3;;;24.2;;
74457;SDS011;62896;51.032;3.712;2024-03-07T14:35:08;31.3;;;24.2;;
74457;SDS011;62896;51.032;3.712;2024-03-07T14:38:26;31.3;;;24.2;;
74457;SDS011;62896;51.032;3.712;2024-03-07T14:41:47;31.3;;;24.2;;
74457;SDS011;62896;51.032;3.712;2024-03-07T14:45:05;31.3;;;24.2;;
74457;SDS011;62896;51.032;3.712;2024-03-07T14:48:25;31.3;;;24.2;;
74457;SDS011;62896;51.032;3.712;2024-03-07T14:51:45;31.3;;;24.2;;
74457;SDS011;62896;51.032;3.712;2024-03-07T14:55:06;31.4;;;23.9;;
74457;SDS011;62896;51.032;3.712;2024-03-07T14:58:25;31.4;;;23.9;;
74457;SDS011;62896;51.032;3.712;2024-03-07T15:01:45;31.4;;;23.9;;
74457;SDS011;62896;51.032;3.712;2024-03-07T15:05:05;31.4;;;23.9;;
74457;SDS011;62896;51.032;3.712;2024-03-07T15:08:25;31.4;;;23.9;;
74457;SDS011;62896;51.032;3.712;2024-03-07T15:11:45;31.4;;;23.9;;
74457;SDS011;62896;51.032;3.712;2024-03-07T15:15:05;31.4;;;23.9;;
74457;SDS011;62896;51.032;3.712;2024-03-07T15:18:25;30.4;;;22.4;;
74457;SDS011;62896;51.032;3.712;2024-03-07T15:21:45;30.4;;;22.4;;
74457;SDS011;62896;51.032;3.712;2024-03-07T15:25:05;30.4;;;22.4;;
74457;SDS011;62896;51.032;3.712;2024-03-07T15:28:25;30.4;;;22.4;;
74457;SDS011;62896;51.032;3.712;2024-03-07T15:31:45;30.4;;;22.4;;
74457;SDS011;62896;51.032;3.712;2024-03-07T15:35:05;30.4;;;22.4;;
74457;SDS011;62896;51.032;3.712;2024-03-07T15:38:25;30.4;;;22.4;;
74457;SDS011;62896;51.032;3.712;2024-03-07T15:41:45;30.4;;;22.4;;
74457;SDS011;62896;51.032;3.712;2024-03-07T15:45:06;32.7;;;22.2;;
74457;SDS011;62896;51.032;3.712;2024-03-07T15:48:25;32.7;;;22.2;;
74457;SDS011;62896;51.032;3.712;2024-03-07T15:51:45;32.7;;;22.2;;
74457;SDS011;62896;51.032;3.712;2024-03-07T15:55:06;32.7;;;22.2;;
74457;SDS011;62896;51.032;3.712;2024-03-07T15:58:25;32.7;;;22.2;;
74457;SDS011;62896;51.032;3.712;2024-03-07T16:01:45;32.7;;;22.2;;
74457;SDS011;62896;51.032;3.712;2024-03-07T16:05:05;32.7;;;22.2;;
74457;SDS011;62896;51.032;3.712;2024-03-07T16:08:25;29;;;21.2;;
74457;SDS011;62896;51.032;3.712;2024-03-07T16:11:45;29;;;21.2;;
74457;SDS011;62896;51.032;3.712;2024-03-07T16:15:06;29;;;21.2;;
74457;SDS011;62896;51.032;3.712;2024-03-07T16:18:25;29;;;21.2;;
74457;SDS011;62896;51.032;3.712;2024-03-07T16:21:45;29;;;21.2;;
74457;SDS011;62896;51.032;3.712;2024-03-07T16:25:05;29;;;21.2;;
74457;SDS011;62896;51.032;3.712;2024-03-07T16:28:25;29;;;21.2;;
74457;SDS011;62896;51.032;3.712;2024-03-07T16:31:45;29;;;21.2;;
74457;SDS011;62896;51.032;3.712;2024-03-07T16:35:06;31.8;;;19.8;;
74457;SDS011;62896;51.032;3.712;2024-03-07T16:38:25;31.8;;;19.8;;
74457;SDS011;62896;51.032;3.712;2024-03-07T16:41:45;31.8;;;19.8;;
74457;SDS011;62896;51.032;3.712;2024-03-07T16:45:06;31.8;;;19.8;;
74457;SDS011;62896;51.032;3.712;2024-03-07T16:48:25;31.8;;;19.8;;
74457;SDS011;62896;51.032;3.712;2024-03-07T16:51:45;31.8;;;19.8;;
74457;SDS011;62896;51.032;3.712;2024-03-07T16:55:06;31.8;;;19.8;;
74457;SDS011;62896;51.032;3.712;2024-03-07T16:58:25;29.6;;;17.7;;
74457;SDS011;62896;51.032;3.712;2024-03-07T17:01:45;29.6;;;17.7;;
74457;SDS011;62896;51.032;3.712;2024-03-07T17:05:05;29.6;;;17.7;;
74457;SDS011;62896;51.032;3.712;2024-03-07T17:08:25;29.6;;;17.7;;
74457;SDS011;62896;51.032;3.712;2024-03-07T17:11:45;29.6;;;17.7;;
74457;SDS011;62896;51.032;3.712;2024-03-07T17:15:05;29.6;;;17.7;;
74457;SDS011;62896;51.032;3.712;2024-03-07T17:18:25;29.6;;;17.7;;
74457;SDS011;62896;51.032;3.712;2024-03-07T17:21:45;29.6;;;17.7;;
74457;SDS011;62896;51.032;3.712;2024-03-07T17:25:06;26.1;;;17.1;;
74457;SDS011;62896;51.032;3.712;2024-03-07T17:28:25;26.1;;;17.1;;
74457;SDS011;62896;51.032;3.712;2024-03-07T17:31:45;26.1;;;17.1;;
74457;SDS011;62896;51.032;3.712;2024-03-07T17:35:05;26.1;;;17.1;;
74457;SDS011;62896;51.032;3.712;2024-03-07T17:38:25;26.1;;;17.1;;
74457;SDS011;62896;51.032;3.712;2024-03-07T17:41:48;26.1;;;17.1;;
74457;SDS011;62896;51.032;3.712;2024-03-07T17:45:05;26.1;;;17.1;;
74457;SDS011;62896;51.032;3.712;2024-03-07T17:48:25;26.2;;;17.3;;
74457;SDS011;62896;51.032;3.712;2024-03-07T17:51:45;26.2;;;17.3;;
74457;SDS011;62896;51.032;3.712;2024-03-07T17:55:05;26.2;;;17.3;;
74457;SDS011;62896;51.032;3.712;2024-03-07T17:58:25;26.2;;;17.3;;
74457;SDS011;62896;51.032;3.712;2024-03-07T18:01:45;26.2;;;17.3;;
74457;SDS011;62896;51.032;3.712;2024-03-07T18:05:05;26.2;;;17.3;;
74457;SDS011;62896;51.032;3.712;2024-03-07T18:08:25;26.2;;;17.3;;
74457;SDS011;62896;51.032;3.712;2024-03-07T18:11:45;26.2;;;17.3;;
74457;SDS011;62896;51.032;3.712;2024-03-07T18:15:05;27.1;;;17.7;;
74457;SDS011;62896;51.032;3.712;2024-03-07T18:18:25;27.1;;;17.7;;
74457;SDS011;62896;51.032;3.712;2024-03-07T18:21:45;27.1;;;17.7;;
74457;SDS011;62896;51.032;3.712;2024-03-07T18:25:06;27.1;;;17.7;;
74457;SDS011;62896;51.032;3.712;2024-03-07T18:28:25;27.1;;;17.7;;
74457;SDS011;62896;51.032;3.712;2024-03-07T18:31:45;27.1;;;17.7;;
74457;SDS011;62896;51.032;3.712;2024-03-07T18:35:06;27.1;;;17.7;;
74457;SDS011;62896;51.032;3.712;2024-03-07T18:38:25;29;;;17.6;;
74457;SDS011;62896;51.032;3.712;2024-03-07T18:41:50;29;;;17.6;;
74457;SDS011;62896;51.032;3.712;2024-03-07T18:45:06;29;;;17.6;;
74457;SDS011;62896;51.032;3.712;2024-03-07T18:48:25;29;;;17.6;;
74457;SDS011;62896;51.032;3.712;2024-03-07T18:51:45;29;;;17.6;;
74457;SDS011;62896;51.032;3.712;2024-03-07T18:55:06;29;;;17.6;;
74457;SDS011;62896;51.032;3.712;2024-03-07T18:58:25;29;;;17.6;;
74457;SDS011;62896;51.032;3.712;2024-03-07T19:01:45;29;;;17.6;;
74457;SDS011;62896;51.032;3.712;2024-03-07T19:05:05;28.2;;;18.3;;
74457;SDS011;62896;51.032;3.712;2024-03-07T19:08:25;28.2;;;18.3;;
74457;SDS011;62896;51.032;3.712;2024-03-07T19:11:45;28.2;;;18.3;;
74457;SDS011;62896;51.032;3.712;2024-03-07T19:15:05;28.2;;;18.3;;
74457;SDS011;62896;51.032;3.712;2024-03-07T19:18:25;28.2;;;18.3;;
74457;SDS011;62896;51.032;3.712;2024-03-07T19:21:45;28.2;;;18.3;;
74457;SDS011;62896;51.032;3.712;2024-03-07T19:25:05;28.2;;;18.3;;
74457;SDS011;62896;51.032;3.712;2024-03-07T19:28:25;25.8;;;16.2;;
74457;SDS011;62896;51.032;3.712;2024-03-07T19:31:46;25.8;;;16.2;;
74457;SDS011;62896;51.032;3.712;2024-03-07T19:35:06;25.8;;;16.2;;
74457;SDS011;62896;51.032;3.712;2024-03-07T19:38:25;25.8;;;16.2;;
74457;SDS011;62896;51.032;3.712;2024-03-07T19:41:46;25.8;;;16.2;;
74457;SDS011;62896;51.032;3.712;2024-03-07T19:45:06;25.8;;;16.2;;
74457;SDS011;62896;51.032;3.712;2024-03-07T19:48:25;25.8;;;16.2;;
74457;SDS011;62896;51.032;3.712;2024-03-07T19:51:45;25.8;;;16.2;;
74457;SDS011;62896;51.032;3.712;2024-03-07T19:55:05;26.5;;;16.7;;
74457;SDS011;62896;51.032;3.712;2024-03-07T19:58:25;26.5;;;16.7;;
74457;SDS011;62896;51.032;3.712;2024-03-07T20:01:45;26.5;;;16.7;;
74457;SDS011;62896;51.032;3.712;2024-03-07T20:05:06;26.5;;;16.7;;
74457;SDS011;62896;51.032;3.712;2024-03-07T20:08:25;26.5;;;16.7;;